Portada
METAR-TAF:

METAR-TAF

Aeropuertos :

Nimes, Francia

latitud: 43-45N, longitud: 004-25E, altitud: 94 m

Observación

El informe se hizo hace 19 minutos, a las 12:30 UTC
Viento 7 kt del noroeste, variando entre oeste y norte
Temperatura 22°C
Humedad 43%
Presión 1009 hPa
Visibilidad 10 km o más
sin nubes por debajo de 1500 m y sin presencia de cumulonimbus.

METAR: LFTW 261230Z AUTO 32007KT 280V360 CAVOK 22/09 Q1009 BECMG 28015G25KT

Hora: 14:49 (12:49 UTC)

Pronóstico

El informe se hizo hace 4 horas y 49 minutos, a las 08:00 UTC
Pronóstico válido del 26 a las 09 UTC al 27 a las 09 UTC
Viento 10 kt del norte-noroeste
Visibilidad 10 km o más
sin nubes por debajo de 1500 m y sin presencia de cumulonimbus.
Evolucionando progresivamente
del 26 a las 12 UTC al 26 a las 15 UTC
Viento 15 kt del oeste con ráfagas de 25 kt

TAF: LFTW 260800Z 2609/2709 33010KT CAVOK BECMG 2612/2615 28015G25KT

Observaciones y pronósticos meteorológicos de más de 4000 aeropuertos (mensajes METAR y TAF).

Los puntos amarillos y rojos representan las estaciones disponibles.

Ponga el ratón en el punto deseado para ver el nombre de la estación.

Haga clic para ver las observaciones y los pronósticos meteorológicos.

Para cambiar el mapa : haga clic en los botones verdes con una cruz de color negro para hacer un zoom, en el botón verde con un guión para alejar o en las flechas verdes para mapas adyacentes.


METAR-TAF: